Time;durP1;ratioP1;P1;durP2;ratioP2;P2;SDS_P1;SDS_P2;PMS_P1;PMS_P2;Temp;Humidity;BMP_temperature;BMP_pressure;BME280_temperature;BME280_humidity;BME280_pressure;Samples;Min_cycle;Max_cycle;Signal;HPM_P1;HPM_P2
2024/03/15 00:01:04;;;;;;;11.45;5.97;;;;;;;-141.50;100.00;63355.56;5002560;28;20041;-84
2024/03/15 00:03:31;;;;;;;11.57;5.85;;;;;;;-141.50;100.00;63355.56;5010686;28;20524;-83
2024/03/15 00:05:58;;;;;;;12.32;5.63;;;;;;;-141.50;100.00;63355.56;5010804;28;20056;-85
2024/03/15 00:08:26;;;;;;;11.90;5.47;;;;;;;-141.50;100.00;63355.56;4997475;28;20070;-84
2024/03/15 00:10:53;;;;;;;11.63;5.70;;;;;;;-141.50;100.00;63355.56;5014779;28;20108;-83
2024/03/15 00:13:20;;;;;;;13.18;6.30;;;;;;;-141.50;100.00;63355.56;5002116;28;20051;-84
2024/03/15 00:15:47;;;;;;;11.75;5.70;;;;;;;-141.50;100.00;63355.56;5008305;28;20053;-84
2024/03/15 00:18:17;;;;;;;11.60;6.07;;;;;;;-141.50;100.00;63355.56;5002489;28;20149;-85
2024/03/15 00:20:45;;;;;;;17.13;6.80;;;;;;;-141.50;100.00;63355.56;4997849;28;20580;-82
2024/03/15 00:23:11;;;;;;;15.27;6.47;;;;;;;-141.50;100.00;63355.56;5001461;28;20050;-83
2024/03/15 00:25:39;;;;;;;15.38;5.93;;;;;;;-141.50;100.00;63355.56;5010107;28;20045;-83
2024/03/15 00:28:15;;;;;;;14.98;6.57;;;;;;;-141.50;100.00;63355.56;5043222;28;20057;-83
2024/03/15 00:30:42;;;;;;;14.85;5.70;;;;;;;-141.50;100.00;63355.56;5001242;28;20127;-84
2024/03/15 00:33:10;;;;;;;15.82;6.68;;;;;;;-141.50;100.00;63355.56;4996469;28;20053;-83
2024/03/15 00:35:37;;;;;;;16.45;6.65;;;;;;;-141.50;100.00;63355.56;4993025;28;20057;-83
2024/03/15 00:38:03;;;;;;;15.65;6.57;;;;;;;-141.50;100.00;63355.56;4998394;28;20049;-82
2024/03/15 00:40:30;;;;;;;14.57;6.40;;;;;;;-141.50;100.00;63355.56;5007774;28;20076;-83
2024/03/15 00:42:58;;;;;;;17.27;6.75;;;;;;;-141.50;100.00;63355.56;4992576;28;20050;-83
2024/03/15 00:45:38;;;;;;;13.65;7.00;;;;;;;-141.50;100.00;63355.56;4994083;28;20038;-83
2024/03/15 00:48:20;;;;;;;17.02;6.85;;;;;;;-141.50;100.00;63355.56;4985771;28;20161;-82
2024/03/15 00:50:47;;;;;;;15.38;7.55;;;;;;;-141.50;100.00;63355.56;4982461;28;20050;-84
2024/03/15 00:53:21;;;;;;;15.52;7.15;;;;;;;-141.50;100.00;63355.56;4983677;28;20133;-83
2024/03/15 00:55:53;;;;;;;13.70;6.63;;;;;;;-141.50;100.00;63355.56;4975150;28;20054;-83
2024/03/15 00:58:30;;;;;;;14.95;6.72;;;;;;;-141.50;100.00;63355.56;4984484;28;20061;-83
2024/03/15 01:00:58;;;;;;;15.85;7.05;;;;;;;-141.50;100.00;63355.56;4976710;28;20046;-84
2024/03/15 01:03:28;;;;;;;14.65;7.20;;;;;;;-141.50;100.00;63355.56;4985276;28;20061;-84
2024/03/15 01:05:58;;;;;;;12.82;7.07;;;;;;;-141.50;100.00;63355.56;4987394;28;20057;-84
2024/03/15 01:08:29;;;;;;;15.65;6.30;;;;;;;-141.50;100.00;63355.56;4999162;28;20072;-84
2024/03/15 01:10:57;;;;;;;13.55;6.25;;;;;;;-141.50;100.00;63355.56;4988095;28;20161;-80
2024/03/15 01:13:28;;;;;;;15.60;7.00;;;;;;;-141.50;100.00;63355.56;5005093;28;20082;-82
2024/03/15 01:15:57;;;;;;;13.57;6.45;;;;;;;-141.50;100.00;63355.56;4989058;28;20053;-84
2024/03/15 01:18:24;;;;;;;14.30;6.53;;;;;;;-141.50;100.00;63355.56;4975023;28;20062;-81
2024/03/15 01:20:52;;;;;;;13.98;6.28;;;;;;;-141.50;100.00;63355.56;4971810;28;20126;-83
2024/03/15 01:23:31;;;;;;;13.70;6.70;;;;;;;-141.50;100.00;63355.56;5019793;28;20075;-83
2024/03/15 01:26:04;;;;;;;15.55;7.22;;;;;;;-141.50;100.00;63355.56;5010251;28;20105;-83
2024/03/15 01:28:33;;;;;;;16.90;7.50;;;;;;;-141.50;100.00;63355.56;5002295;28;20047;-82
2024/03/15 01:31:00;;;;;;;12.70;6.60;;;;;;;-141.50;100.00;63355.56;5012946;28;20054;-83
2024/03/15 01:33:33;;;;;;;15.65;6.88;;;;;;;-141.50;100.00;63355.56;4990961;28;20118;-83
2024/03/15 01:36:11;;;;;;;17.67;7.55;;;;;;;-141.50;100.00;63355.56;5001496;28;20057;-82
2024/03/15 01:38:39;;;;;;;17.17;7.57;;;;;;;-141.50;100.00;63355.56;4995046;28;20129;-85
2024/03/15 01:41:17;;;;;;;17.30;7.90;;;;;;;-141.50;100.00;63355.56;4972913;28;20495;-83
2024/03/15 01:43:54;;;;;;;20.38;8.60;;;;;;;-141.50;100.00;63355.56;4978193;28;20100;-83
2024/03/15 01:46:30;;;;;;;16.98;8.45;;;;;;;-141.50;100.00;63355.56;5021883;28;20057;-83
2024/03/15 01:49:02;;;;;;;19.77;9.30;;;;;;;-141.50;100.00;63355.56;5011250;28;20063;-82
2024/03/15 01:51:32;;;;;;;18.77;8.80;;;;;;;-141.50;100.00;63355.56;5018531;28;20539;-81
2024/03/15 01:54:07;;;;;;;22.08;9.73;;;;;;;-141.50;100.00;63355.56;5002288;28;20053;-84
2024/03/15 01:56:37;;;;;;;20.35;8.93;;;;;;;-141.50;100.00;63355.56;5001456;28;20058;-82
2024/03/15 01:59:12;;;;;;;21.35;8.88;;;;;;;-141.50;100.00;63355.56;4985664;28;20109;-83
2024/03/15 02:02:00;;;;;;;21.77;9.15;;;;;;;-141.50;100.00;63355.56;5010539;28;20144;-83
2024/03/15 02:04:31;;;;;;;18.23;8.32;;;;;;;-141.50;100.00;63355.56;4971006;28;20058;-83
2024/03/15 02:06:58;;;;;;;20.60;8.40;;;;;;;-141.50;100.00;63355.56;4984155;28;20054;-82
2024/03/15 02:09:30;;;;;;;17.58;8.25;;;;;;;-141.50;100.00;63355.56;5011889;28;20316;-81
2024/03/15 02:12:00;;;;;;;21.80;8.20;;;;;;;-141.50;100.00;63355.56;5000121;28;20479;-80
2024/03/15 02:14:26;;;;;;;18.00;8.18;;;;;;;-141.50;100.00;63355.56;4997878;28;20049;-81
2024/03/15 02:16:53;;;;;;;19.67;8.27;;;;;;;-141.50;100.00;63355.56;5001093;28;20058;-82
2024/03/15 02:19:20;;;;;;;17.95;8.30;;;;;;;-141.50;100.00;63355.56;4990602;28;20074;-82
2024/03/15 02:21:50;;;;;;;14.82;6.90;;;;;;;-141.50;100.00;63355.56;5009584;28;20062;-83
2024/03/15 02:24:21;;;;;;;16.73;7.53;;;;;;;-141.50;100.00;63355.56;5006783;28;20268;-81
2024/03/15 02:27:03;;;;;;;18.20;7.55;;;;;;;-141.50;100.00;63355.56;5012714;28;20053;-85
2024/03/15 02:29:30;;;;;;;15.07;6.32;;;;;;;-141.50;100.00;63355.56;5012482;28;20049;-83
2024/03/15 02:32:00;;;;;;;16.15;6.85;;;;;;;-141.50;100.00;63355.56;5003976;28;20605;-85
2024/03/15 02:34:27;;;;;;;13.00;6.22;;;;;;;-141.50;100.00;63355.56;5014108;28;20049;-84
2024/03/15 02:36:55;;;;;;;14.38;7.00;;;;;;;-141.50;100.00;63355.56;5003881;28;20219;-83
2024/03/15 02:39:35;;;;;;;13.15;6.68;;;;;;;-141.50;100.00;63355.56;4995389;28;20046;-84
2024/03/15 02:42:08;;;;;;;13.23;6.63;;;;;;;-141.50;100.00;63355.56;5003627;28;20041;-84
2024/03/15 02:44:43;;;;;;;14.73;7.07;;;;;;;-141.50;100.00;63355.56;5013012;28;20089;-84
2024/03/15 02:47:11;;;;;;;13.90;5.82;;;;;;;-141.50;100.00;63355.56;5009252;28;20060;-85
2024/03/15 02:49:40;;;;;;;14.50;6.38;;;;;;;-141.50;100.00;63355.56;5003399;28;20050;-84
2024/03/15 02:52:18;;;;;;;14.02;6.22;;;;;;;-141.50;100.00;63355.56;5017815;28;20042;-85
2024/03/15 02:54:56;;;;;;;15.57;6.57;;;;;;;-141.50;100.00;63355.56;5018911;28;20507;-80
2024/03/15 02:57:31;;;;;;;13.98;5.70;;;;;;;-141.50;100.00;63355.56;5010408;28;20057;-82
2024/03/15 02:59:58;;;;;;;12.80;6.10;;;;;;;-141.50;100.00;63355.56;4961586;28;20279;-81
2024/03/15 03:02:36;;;;;;;16.77;7.47;;;;;;;-141.50;100.00;63355.56;4997872;28;20049;-82
2024/03/15 03:05:07;;;;;;;14.25;6.32;;;;;;;-141.50;100.00;63355.56;4992722;28;20049;-84
2024/03/15 03:07:33;;;;;;;14.20;6.70;;;;;;;-141.50;100.00;63355.56;5005979;28;20101;-82
2024/03/15 03:10:00;;;;;;;15.68;6.47;;;;;;;-141.50;100.00;63355.56;4989274;28;20497;-80
2024/03/15 03:12:27;;;;;;;14.30;6.78;;;;;;;-141.50;100.00;63355.56;4989306;28;20058;-84
2024/03/15 03:14:54;;;;;;;14.60;6.75;;;;;;;-141.50;100.00;63355.56;4998458;28;20088;-85
2024/03/15 03:17:22;;;;;;;14.85;6.53;;;;;;;-141.50;100.00;63355.56;4989850;28;20054;-81
2024/03/15 03:19:48;;;;;;;14.93;6.90;;;;;;;-141.50;100.00;63355.56;5006626;28;20064;-80
2024/03/15 03:22:17;;;;;;;13.43;6.65;;;;;;;-141.50;100.00;63355.56;5002230;28;20050;-82
2024/03/15 03:24:46;;;;;;;15.38;7.15;;;;;;;-141.50;100.00;63355.56;4994859;28;20147;-80
2024/03/15 03:27:13;;;;;;;15.95;6.90;;;;;;;-141.50;100.00;63355.56;5003970;28;20064;-82
2024/03/15 03:29:42;;;;;;;16.38;7.10;;;;;;;-141.50;100.00;63355.56;5001183;28;20058;-79
2024/03/15 03:32:09;;;;;;;13.63;6.28;;;;;;;-141.50;100.00;63355.56;5005385;28;20153;-82
2024/03/15 03:34:39;;;;;;;13.70;6.75;;;;;;;-141.50;100.00;63355.56;5008092;28;20065;-81
2024/03/15 03:37:07;;;;;;;14.10;6.53;;;;;;;-141.50;100.00;63355.56;4993013;28;20070;-84
2024/03/15 03:39:34;;;;;;;15.95;7.15;;;;;;;-141.50;100.00;63355.56;4991358;28;20066;-82
2024/03/15 03:42:04;;;;;;;13.40;6.70;;;;;;;-141.50;100.00;63355.56;5005590;28;20053;-80
2024/03/15 03:44:32;;;;;;;14.25;6.72;;;;;;;-141.50;100.00;63355.56;5022400;28;20076;-82
2024/03/15 03:47:03;;;;;;;13.50;6.70;;;;;;;-141.50;100.00;63355.56;5021508;28;20127;-83
2024/03/15 03:49:30;;;;;;;15.07;6.88;;;;;;;-141.50;100.00;63355.56;5012107;28;20059;-82
2024/03/15 03:51:57;;;;;;;16.48;7.32;;;;;;;-141.50;100.00;63355.56;4997071;28;21526;-80
2024/03/15 03:54:25;;;;;;;13.63;6.78;;;;;;;-141.50;100.00;63355.56;5008220;28;20053;-80
2024/03/15 03:56:52;;;;;;;14.73;6.60;;;;;;;-141.50;100.00;63355.56;5007535;28;20053;-83
2024/03/15 03:59:18;;;;;;;16.48;7.28;;;;;;;-141.50;100.00;63355.56;5022467;28;20045;-83
2024/03/15 04:01:45;;;;;;;15.77;6.88;;;;;;;-141.50;100.00;63355.56;4992467;28;20250;-82
2024/03/15 04:04:13;;;;;;;15.07;7.38;;;;;;;-141.50;100.00;63355.56;5016699;28;20074;-81
2024/03/15 04:06:46;;;;;;;15.00;6.75;;;;;;;-141.50;100.00;63355.56;5024305;28;20061;-80
2024/03/15 04:09:12;;;;;;;15.05;6.53;;;;;;;-141.50;100.00;63355.56;4995936;28;20299;-83
2024/03/15 04:11:40;;;;;;;16.75;7.38;;;;;;;-141.50;100.00;63355.56;5011199;28;20064;-84
2024/03/15 04:14:08;;;;;;;16.17;7.13;;;;;;;-141.50;100.00;63355.56;5003703;28;20429;-82
2024/03/15 04:16:35;;;;;;;15.98;7.22;;;;;;;-141.50;100.00;63355.56;5023951;28;20053;-83
2024/03/15 04:19:03;;;;;;;13.85;6.43;;;;;;;-141.50;100.00;63355.56;5018974;28;20046;-83
2024/03/15 04:21:29;;;;;;;13.00;7.15;;;;;;;-141.50;100.00;63355.56;5007616;28;20042;-83
2024/03/15 04:23:56;;;;;;;15.55;6.75;;;;;;;-141.50;100.00;63355.56;4998692;28;20506;-84
2024/03/15 04:26:26;;;;;;;13.50;6.75;;;;;;;-141.50;100.00;63355.56;4999305;28;20057;-84
2024/03/15 04:28:53;;;;;;;14.05;7.07;;;;;;;-141.50;100.00;63355.56;4997281;28;20086;-82
2024/03/15 04:31:21;;;;;;;14.30;6.85;;;;;;;-141.50;100.00;63355.56;5016824;28;20046;-83
2024/03/15 04:33:49;;;;;;;14.15;7.07;;;;;;;-141.50;100.00;63355.56;5003775;28;20128;-82
2024/03/15 04:36:16;;;;;;;14.23;7.18;;;;;;;-141.50;100.00;63355.56;5021413;28;20045;-81
2024/03/15 04:38:47;;;;;;;16.80;7.38;;;;;;;-141.50;100.00;63355.56;5030038;28;20057;-81
2024/03/15 04:41:19;;;;;;;13.82;7.22;;;;;;;-141.50;100.00;63355.56;5018147;28;20045;-81
2024/03/15 04:43:47;;;;;;;13.80;6.40;;;;;;;-141.50;100.00;63355.56;4995225;28;20058;-82
2024/03/15 04:46:13;;;;;;;17.42;7.60;;;;;;;-141.50;100.00;63355.56;5006828;28;20054;-82
2024/03/15 04:48:40;;;;;;;12.80;6.82;;;;;;;-141.50;100.00;63355.56;5006687;28;20065;-81
2024/03/15 04:51:07;;;;;;;15.98;7.20;;;;;;;-141.50;100.00;63355.56;5025861;28;20057;-82
2024/03/15 04:53:33;;;;;;;14.43;6.88;;;;;;;-141.50;100.00;63355.56;5018883;28;20558;-83
2024/03/15 04:56:00;;;;;;;12.13;6.35;;;;;;;-141.50;100.00;63355.56;5034623;28;20064;-83
2024/03/15 04:58:30;;;;;;;19.38;7.65;;;;;;;-141.50;100.00;63355.56;5014451;28;20050;-82
2024/03/15 05:00:57;;;;;;;15.60;7.07;;;;;;;-141.50;100.00;63355.56;5007784;28;20496;-82
2024/03/15 05:03:23;;;;;;;14.07;6.60;;;;;;;-141.50;100.00;63355.56;5006949;28;20046;-80
2024/03/15 05:05:50;;;;;;;14.18;6.53;;;;;;;-141.50;100.00;63355.56;5001203;28;20057;-82
2024/03/15 05:08:17;;;;;;;11.73;5.63;;;;;;;-141.50;100.00;63355.56;5001513;28;20068;-83
2024/03/15 05:10:44;;;;;;;13.55;6.70;;;;;;;-141.50;100.00;63355.56;4999839;28;20057;-80
2024/03/15 05:13:11;;;;;;;14.10;6.80;;;;;;;-141.50;100.00;63355.56;4986306;28;20058;-82
2024/03/15 05:15:39;;;;;;;15.45;7.10;;;;;;;-141.50;100.00;63355.56;4988934;28;20056;-80
2024/03/15 05:18:08;;;;;;;12.70;5.95;;;;;;;-141.50;100.00;63355.56;4991211;28;20404;-82
2024/03/15 05:20:34;;;;;;;14.88;7.35;;;;;;;-141.50;100.00;63355.56;4995819;28;20077;-81
2024/03/15 05:23:01;;;;;;;14.20;6.57;;;;;;;-141.50;100.00;63355.56;5012751;28;20054;-81
2024/03/15 05:25:28;;;;;;;16.25;6.78;;;;;;;-141.50;100.00;63355.56;5004790;28;20585;-81
2024/03/15 05:27:55;;;;;;;13.38;6.78;;;;;;;-141.50;100.00;63355.56;4994790;28;20055;-80
2024/03/15 05:30:23;;;;;;;12.80;6.32;;;;;;;-141.50;100.00;63355.56;5002256;28;20052;-81
2024/03/15 05:32:50;;;;;;;13.48;6.22;;;;;;;-141.50;100.00;63355.56;5010114;28;20068;-81
2024/03/15 05:35:18;;;;;;;14.95;6.63;;;;;;;-141.50;100.00;63355.56;5002374;28;20073;-80
2024/03/15 05:37:46;;;;;;;12.18;6.07;;;;;;;-141.50;100.00;63355.56;5008943;28;20480;-81
2024/03/15 05:40:15;;;;;;;13.73;6.53;;;;;;;-141.50;100.00;63355.56;5006021;28;20050;-82
2024/03/15 05:42:42;;;;;;;12.00;6.32;;;;;;;-141.50;100.00;63355.56;4988805;28;20511;-81
2024/03/15 05:45:09;;;;;;;16.08;6.18;;;;;;;-141.50;100.00;63355.56;5019460;28;20049;-80
2024/03/15 05:47:36;;;;;;;14.75;6.57;;;;;;;-141.50;100.00;63355.56;4998515;28;20060;-81
2024/03/15 05:50:04;;;;;;;11.27;6.22;;;;;;;-141.50;100.00;63355.56;5007687;28;20124;-82
2024/03/15 05:52:34;;;;;;;14.75;6.35;;;;;;;-141.50;100.00;63355.56;5009493;28;20125;-83
2024/03/15 05:55:01;;;;;;;15.30;6.63;;;;;;;-141.50;100.00;63355.56;5019752;28;20085;-81
2024/03/15 05:57:29;;;;;;;14.65;6.22;;;;;;;-141.50;100.00;63355.56;5016267;28;20043;-83
2024/03/15 05:59:58;;;;;;;12.63;6.53;;;;;;;-141.50;100.00;63355.56;5045188;28;20057;-84
2024/03/15 06:02:25;;;;;;;12.45;6.30;;;;;;;-141.50;100.00;63355.56;5036638;28;20117;-83
2024/03/15 06:04:52;;;;;;;13.05;6.35;;;;;;;-141.50;100.00;63355.56;5034786;28;20594;-81
2024/03/15 06:07:19;;;;;;;10.85;5.97;;;;;;;-141.50;100.00;63355.56;5017310;28;20049;-80
2024/03/15 06:09:46;;;;;;;14.15;6.88;;;;;;;-141.50;100.00;63355.56;4985027;28;20050;-79
2024/03/15 06:12:12;;;;;;;14.93;6.20;;;;;;;-141.50;100.00;63355.56;5011011;28;20046;-84
2024/03/15 06:14:39;;;;;;;12.38;6.18;;;;;;;-141.50;100.00;63355.56;5025145;28;20053;-80
2024/03/15 06:17:06;;;;;;;15.20;6.50;;;;;;;-141.50;100.00;63355.56;5015508;28;20069;-83
2024/03/15 06:19:33;;;;;;;11.60;6.00;;;;;;;-141.50;100.00;63355.56;5013646;28;20049;-82
2024/03/15 06:22:00;;;;;;;15.20;6.55;;;;;;;-141.50;100.00;63355.56;5017473;28;20049;-81
2024/03/15 06:24:27;;;;;;;13.23;6.53;;;;;;;-141.50;100.00;63355.56;5032203;28;20073;-83
2024/03/15 06:26:54;;;;;;;13.23;6.35;;;;;;;-141.50;100.00;63355.56;5013940;28;20062;-84
2024/03/15 06:29:31;;;;;;;13.13;6.40;;;;;;;-141.50;100.00;63355.56;5012374;28;20407;-80
2024/03/15 06:32:00;;;;;;;13.45;6.68;;;;;;;-141.50;100.00;63355.56;5019285;28;20054;-82
2024/03/15 06:34:31;;;;;;;13.77;6.30;;;;;;;-141.50;100.00;63355.56;5017927;28;20046;-83
2024/03/15 06:36:59;;;;;;;13.48;6.43;;;;;;;-141.50;100.00;63355.56;4994990;28;20491;-82
2024/03/15 06:42:35;;;;;;;13.60;6.18;;;;;;;-141.50;100.00;63355.56;4992992;28;20072;-82
2024/03/15 06:45:08;;;;;;;12.15;6.38;;;;;;;-141.50;100.00;63355.56;5009270;28;20061;-82
2024/03/15 06:47:38;;;;;;;12.80;6.20;;;;;;;-141.50;100.00;63355.56;4996626;28;20046;-83
2024/03/15 06:50:30;;;;;;;14.13;6.93;;;;;;;-141.50;100.00;63355.56;4994697;28;20072;-81
2024/03/15 06:52:52;;;;;;;13.98;6.63;;;;;;;-141.50;100.00;63355.56;4995812;28;20120;-82
2024/03/15 06:55:22;;;;;;;14.32;6.60;;;;;;;-141.50;100.00;63355.56;5003144;28;20063;-84
2024/03/15 06:58:20;;;;;;;13.70;6.35;;;;;;;-141.50;100.00;63355.56;5009191;28;20515;-82
2024/03/15 07:00:50;;;;;;;14.77;6.75;;;;;;;-141.50;100.00;63355.56;5001244;28;20058;-82
2024/03/15 07:03:18;;;;;;;14.20;6.70;;;;;;;-141.50;100.00;63355.56;4993072;28;20046;-83
2024/03/15 07:05:45;;;;;;;13.02;6.35;;;;;;;-141.50;100.00;63355.56;4990364;28;20089;-81
2024/03/15 07:08:14;;;;;;;12.77;6.53;;;;;;;-141.50;100.00;63355.56;4993401;28;20057;-82
2024/03/15 07:10:41;;;;;;;14.48;6.88;;;;;;;-141.50;100.00;63355.56;4992152;28;20347;-82
2024/03/15 07:13:09;;;;;;;12.70;6.65;;;;;;;-141.50;100.00;63355.56;5019386;28;20108;-83
2024/03/15 07:15:36;;;;;;;12.82;6.15;;;;;;;-141.50;100.00;63355.56;5009341;28;20073;-83
2024/03/15 07:18:04;;;;;;;14.05;6.25;;;;;;;-141.50;100.00;63355.56;5006832;28;20596;-82
2024/03/15 07:20:32;;;;;;;10.50;5.40;;;;;;;-141.50;100.00;63355.56;5008904;28;20535;-80
2024/03/15 07:22:59;;;;;;;14.60;6.40;;;;;;;-141.50;100.00;63355.56;5016173;28;20085;-80
2024/03/15 07:25:25;;;;;;;12.57;5.88;;;;;;;-141.50;100.00;63355.56;5008272;28;20058;-84
2024/03/15 07:27:53;;;;;;;14.35;5.72;;;;;;;-141.50;100.00;63355.56;5036885;28;20058;-83
2024/03/15 07:30:24;;;;;;;10.82;5.15;;;;;;;-141.50;100.00;63355.56;5019552;28;20148;-82
2024/03/15 07:32:51;;;;;;;10.40;5.70;;;;;;;-141.50;100.00;63355.56;5005924;28;20058;-83
2024/03/15 07:35:18;;;;;;;11.05;6.43;;;;;;;-141.50;100.00;63355.56;5011334;28;20104;-83
2024/03/15 07:37:47;;;;;;;11.73;5.85;;;;;;;-141.50;100.00;63355.56;5004697;28;20516;-82
2024/03/15 07:40:14;;;;;;;12.73;5.75;;;;;;;-141.50;100.00;63355.56;5017292;28;20575;-82
2024/03/15 07:42:41;;;;;;;11.55;5.90;;;;;;;-141.50;100.00;63355.56;5017709;28;20050;-80
2024/03/15 07:45:10;;;;;;;12.75;5.63;;;;;;;-141.50;100.00;63355.56;5025056;28;20103;-82
2024/03/15 07:47:38;;;;;;;12.82;6.15;;;;;;;-141.50;100.00;63355.56;5001135;28;20118;-83
2024/03/15 07:50:11;;;;;;;13.60;5.82;;;;;;;-141.50;100.00;63355.56;5000843;28;20050;-83
2024/03/15 07:53:19;;;;;;;15.52;6.35;;;;;;;-141.50;100.00;63355.56;5001994;28;20085;-82
2024/03/15 07:55:46;;;;;;;11.95;6.13;;;;;;;-141.50;100.00;63355.56;5011648;28;20050;-82
2024/03/15 07:58:17;;;;;;;10.80;6.00;;;;;;;-141.50;100.00;63355.56;5008800;28;20092;-81
2024/03/15 08:00:44;;;;;;;13.43;6.15;;;;;;;-141.50;100.00;63355.56;4998440;28;20058;-81
2024/03/15 08:03:12;;;;;;;11.32;5.88;;;;;;;-141.50;100.00;63355.56;5026117;28;20056;-83
2024/03/15 08:05:48;;;;;;;10.38;5.35;;;;;;;-141.50;100.00;63355.56;5010462;28;20084;-82
2024/03/15 08:08:21;;;;;;;14.00;5.45;;;;;;;-141.50;100.00;63355.56;5015115;28;20119;-81
2024/03/15 08:10:51;;;;;;;;;;;;;;;-141.50;100.00;63355.56;5002110;28;20542;-82
2024/03/15 08:13:22;;;;;;;10.93;5.78;;;;;;;-141.50;100.00;63355.56;4990559;28;19929;-80
2024/03/15 08:15:59;;;;;;;10.45;5.30;;;;;;;-141.50;100.00;63355.56;4994512;28;20447;-83
2024/03/15 08:18:29;;;;;;;11.13;5.20;;;;;;;-141.50;100.00;63355.56;5025170;28;20046;-81
2024/03/15 08:21:02;;;;;;;13.13;5.07;;;;;;;-141.50;100.00;63355.56;5006940;28;20163;-83
2024/03/15 08:23:32;;;;;;;10.65;5.03;;;;;;;-141.50;100.00;63355.56;5006292;28;20069;-83
2024/03/15 08:26:02;;;;;;;11.20;5.00;;;;;;;-141.50;100.00;63355.56;5012365;28;20070;-81
2024/03/15 08:28:31;;;;;;;13.02;5.75;;;;;;;-141.50;100.00;63355.56;4999157;28;20989;-82
2024/03/15 08:31:14;;;;;;;13.88;5.32;;;;;;;-141.50;100.00;63355.56;5023515;28;20137;-82
2024/03/15 08:33:48;;;;;;;14.48;5.63;;;;;;;-141.50;100.00;63355.56;5003325;28;20104;-83
2024/03/15 08:36:21;;;;;;;9.52;4.90;;;;;;;-141.50;100.00;63355.56;5038625;28;20062;-82
2024/03/15 08:38:58;;;;;;;11.73;5.20;;;;;;;-141.50;100.00;63355.56;5008085;28;20084;-81
2024/03/15 08:41:33;;;;;;;10.48;4.97;;;;;;;-141.50;100.00;63355.56;4998182;28;20131;-82
2024/03/15 08:44:11;;;;;;;10.30;5.33;;;;;;;-141.50;100.00;63355.56;5009178;28;20053;-83
2024/03/15 08:46:41;;;;;;;11.02;5.40;;;;;;;-141.50;100.00;63355.56;5022185;28;20069;-83
2024/03/15 08:49:16;;;;;;;10.80;5.15;;;;;;;-141.50;100.00;63355.56;5004521;28;20042;-82
2024/03/15 08:51:46;;;;;;;12.07;4.90;;;;;;;-141.50;100.00;63355.56;5008325;28;20084;-82
2024/03/15 08:54:22;;;;;;;10.18;5.43;;;;;;;-141.50;100.00;63355.56;5015453;28;20042;-82
2024/03/15 08:56:51;;;;;;;8.85;5.30;;;;;;;-141.50;100.00;63355.56;4988297;28;20050;-84
2024/03/15 08:59:23;;;;;;;12.40;5.65;;;;;;;-141.50;100.00;63355.56;5016643;28;20176;-81
2024/03/15 09:01:50;;;;;;;10.77;5.50;;;;;;;-141.50;100.00;63355.56;4988155;28;20080;-82
2024/03/15 09:04:46;;;;;;;9.45;5.28;;;;;;;-141.50;100.00;63355.56;5003252;28;20073;-83
2024/03/15 09:07:24;;;;;;;9.18;4.70;;;;;;;-141.50;100.00;63355.56;4967640;28;20108;-81
2024/03/15 09:09:54;;;;;;;8.80;4.18;;;;;;;-141.50;100.00;63355.56;5007089;28;20064;-83
2024/03/15 09:12:26;;;;;;;8.68;4.60;;;;;;;-141.50;100.00;63355.56;5006521;28;20041;-82
2024/03/15 09:14:57;;;;;;;9.05;4.47;;;;;;;-141.50;100.00;63355.56;5019372;28;20055;-83
2024/03/15 09:17:25;;;;;;;12.23;4.95;;;;;;;-141.50;100.00;63355.56;5014339;28;20223;-82
2024/03/15 09:19:57;;;;;;;7.82;4.22;;;;;;;-141.50;100.00;63355.56;5030682;28;20141;-84
2024/03/15 09:22:49;;;;;;;8.90;4.85;;;;;;;-141.50;100.00;63355.56;5008716;28;20050;-82
2024/03/15 09:25:21;;;;;;;8.13;4.30;;;;;;;-141.50;100.00;63355.56;5019927;28;20396;-81
2024/03/15 09:27:59;;;;;;;9.27;4.63;;;;;;;-141.50;100.00;63355.56;5000107;28;20054;-81
2024/03/15 09:31:08;;;;;;;9.25;4.15;;;;;;;-141.50;100.00;63355.56;5008852;28;20318;-82
2024/03/15 09:34:05;;;;;;;9.18;4.70;;;;;;;-141.50;100.00;63355.56;5005271;28;20159;-81
2024/03/15 09:36:35;;;;;;;11.95;4.70;;;;;;;-141.50;100.00;63355.56;4994176;28;20111;-80
2024/03/15 09:39:26;;;;;;;14.35;4.18;;;;;;;-141.50;100.00;63355.56;4998638;28;20114;-81
2024/03/15 09:41:56;;;;;;;6.82;3.78;;;;;;;-141.50;100.00;63355.56;4977085;28;20535;-82
2024/03/15 09:44:25;;;;;;;8.63;4.60;;;;;;;-141.50;100.00;63355.56;5022363;28;20404;-81
2024/03/15 09:46:56;;;;;;;8.75;4.65;;;;;;;-141.50;100.00;63355.56;4981524;28;20543;-82
2024/03/15 09:49:29;;;;;;;11.82;4.80;;;;;;;-141.50;100.00;63355.56;5003586;28;20053;-80
2024/03/15 09:52:14;;;;;;;8.23;3.67;;;;;;;-141.50;100.00;63355.56;4974684;28;20124;-81
2024/03/15 09:54:48;;;;;;;8.00;4.00;;;;;;;-141.50;100.00;63355.56;5007288;28;20398;-83
2024/03/15 09:57:22;;;;;;;6.72;3.53;;;;;;;-141.50;100.00;63355.56;4979461;28;20521;-83
2024/03/15 09:59:59;;;;;;;7.38;3.30;;;;;;;-141.50;100.00;63355.56;4991429;28;20054;-81
2024/03/15 10:02:47;;;;;;;7.53;3.17;;;;;;;-141.50;100.00;63355.56;4992632;28;20045;-83
2024/03/15 10:08:34;;;;;;;7.72;3.10;;;;;;;-141.50;100.00;63355.56;4999120;28;20052;-83
2024/03/15 10:11:11;;;;;;;4.55;2.60;;;;;;;-141.50;100.00;63355.56;4972769;28;20091;-82
2024/03/15 10:13:52;;;;;;;5.55;2.85;;;;;;;-141.50;100.00;63355.56;4981426;28;20049;-80
2024/03/15 10:16:38;;;;;;;4.85;2.45;;;;;;;-141.50;100.00;63355.56;4987253;28;20046;-84
2024/03/15 10:19:33;;;;;;;5.70;2.70;;;;;;;-141.50;100.00;63355.56;5017677;28;20073;-82
2024/03/15 10:22:08;;;;;;;7.32;3.13;;;;;;;-141.50;100.00;63355.56;5001505;28;20128;-82
2024/03/15 10:24:42;;;;;;;6.25;2.75;;;;;;;-141.50;100.00;63355.56;5004657;28;20048;-82
2024/03/15 10:27:30;;;;;;;5.10;2.53;;;;;;;-141.50;100.00;63355.56;4996128;28;20057;-83
2024/03/15 10:30:05;;;;;;;5.55;2.63;;;;;;;-141.50;100.00;63355.56;4972660;28;20177;-82
2024/03/15 10:32:53;;;;;;;4.65;2.40;;;;;;;-141.50;100.00;63355.56;4962422;28;20056;-81
2024/03/15 10:35:36;;;;;;;4.13;2.25;;;;;;;-141.50;100.00;63355.56;4978683;28;20045;-84
2024/03/15 10:38:27;;;;;;;4.40;2.30;;;;;;;-141.50;100.00;63355.56;4988090;28;20112;-83
2024/03/15 10:41:17;;;;;;;4.93;2.30;;;;;;;-141.50;100.00;63355.56;4990756;28;20054;-83
2024/03/15 10:44:04;;;;;;;;;;;;;;;-141.50;100.00;63355.56;4988780;28;20052;-84
2024/03/15 10:46:52;;;;;;;11.23;2.65;;;;;;;-141.50;100.00;63355.56;4952074;28;19929;-81
2024/03/15 10:49:49;;;;;;;7.03;2.65;;;;;;;-141.50;100.00;63355.56;4959497;28;20480;-84
2024/03/15 10:52:38;;;;;;;4.70;2.13;;;;;;;-141.50;100.00;63355.56;4995910;28;20243;-83
2024/03/15 10:55:25;;;;;;;3.83;2.35;;;;;;;-141.50;100.00;63355.56;5015370;28;20065;-83
2024/03/15 10:58:08;;;;;;;3.45;1.55;;;;;;;-141.50;100.00;63355.56;4981218;28;20053;-82
2024/03/15 11:01:07;;;;;;;3.72;1.90;;;;;;;-141.50;100.00;63355.56;4991477;28;20061;-82
2024/03/15 11:03:48;;;;;;;4.25;2.20;;;;;;;-141.50;100.00;63355.56;5020802;28;20062;-80
2024/03/15 11:06:48;;;;;;;5.35;2.35;;;;;;;-141.50;100.00;63355.56;4979749;28;20045;-82
2024/03/15 11:09:35;;;;;;;4.80;2.83;;;;;;;-141.50;100.00;63355.56;4994622;28;20601;-81
2024/03/15 11:12:49;;;;;;;5.32;2.30;;;;;;;-141.50;100.00;63355.56;4988294;28;20068;-82
2024/03/15 11:15:28;;;;;;;6.32;2.92;;;;;;;-141.50;100.00;63355.56;5002740;28;20107;-82
2024/03/15 11:18:13;;;;;;;5.68;3.47;;;;;;;-141.50;100.00;63355.56;5039640;28;20053;-83
2024/03/15 11:20:57;;;;;;;5.60;3.10;;;;;;;-141.50;100.00;63355.56;4962405;28;20569;-82
2024/03/15 11:24:07;;;;;;;7.45;3.08;;;;;;;-141.50;100.00;63355.56;4988584;28;20069;-82
2024/03/15 11:26:41;;;;;;;5.95;3.20;;;;;;;-141.50;100.00;63355.56;5020472;28;20065;-83
2024/03/15 11:29:20;;;;;;;6.57;3.10;;;;;;;-141.50;100.00;63355.56;4979909;28;20607;-82
2024/03/15 11:32:14;;;;;;;6.57;3.60;;;;;;;-141.50;100.00;63355.56;5000648;28;20128;-82
2024/03/15 11:34:53;;;;;;;5.55;3.20;;;;;;;-141.50;100.00;63355.56;4987971;28;20422;-80